sensor_id;sensor_type;location;lat;lon;timestamp;pressure;altitude;pressure_sealevel;temperature;humidity
55592;BME280;41454;53.396;-1.510;2023-11-19T00:00:10;98655.98;;;9.39;100.00
55592;BME280;41454;53.396;-1.510;2023-11-19T00:02:37;98665.66;;;9.48;100.00
55592;BME280;41454;53.396;-1.510;2023-11-19T00:05:05;98665.59;;;9.29;100.00
55592;BME280;41454;53.396;-1.510;2023-11-19T00:07:33;98673.05;;;9.38;100.00
55592;BME280;41454;53.396;-1.510;2023-11-19T00:10:00;98668.54;;;9.12;100.00
55592;BME280;41454;53.396;-1.510;2023-11-19T00:12:27;98677.32;;;9.32;100.00
55592;BME280;41454;53.396;-1.510;2023-11-19T00:14:54;98673.94;;;8.61;100.00
55592;BME280;41454;53.396;-1.510;2023-11-19T00:17:21;98678.70;;;9.08;100.00
55592;BME280;41454;53.396;-1.510;2023-11-19T00:19:48;98664.16;;;9.08;100.00
55592;BME280;41454;53.396;-1.510;2023-11-19T00:22:15;98667.57;;;9.63;100.00
55592;BME280;41454;53.396;-1.510;2023-11-19T00:24:43;98680.45;;;9.80;100.00
55592;BME280;41454;53.396;-1.510;2023-11-19T00:27:10;98695.82;;;9.58;100.00
55592;BME280;41454;53.396;-1.510;2023-11-19T00:29:36;98703.31;;;9.68;100.00
55592;BME280;41454;53.396;-1.510;2023-11-19T00:32:04;98691.00;;;9.46;100.00
55592;BME280;41454;53.396;-1.510;2023-11-19T00:34:32;98697.86;;;9.74;100.00
55592;BME280;41454;53.396;-1.510;2023-11-19T00:36:59;98702.09;;;9.37;100.00
55592;BME280;41454;53.396;-1.510;2023-11-19T00:39:26;98699.72;;;10.42;100.00
55592;BME280;41454;53.396;-1.510;2023-11-19T00:41:54;98701.41;;;9.90;100.00
55592;BME280;41454;53.396;-1.510;2023-11-19T00:44:21;98701.76;;;10.94;100.00
55592;BME280;41454;53.396;-1.510;2023-11-19T00:46:49;98692.70;;;9.91;100.00
55592;BME280;41454;53.396;-1.510;2023-11-19T00:49:16;98688.95;;;10.28;100.00
55592;BME280;41454;53.396;-1.510;2023-11-19T00:51:44;98686.69;;;10.93;100.00
55592;BME280;41454;53.396;-1.510;2023-11-19T00:54:11;98682.25;;;10.23;100.00
55592;BME280;41454;53.396;-1.510;2023-11-19T00:56:38;98684.58;;;10.56;100.00
55592;BME280;41454;53.396;-1.510;2023-11-19T00:59:05;98683.98;;;10.02;100.00
55592;BME280;41454;53.396;-1.510;2023-11-19T01:01:32;98680.44;;;10.29;100.00
55592;BME280;41454;53.396;-1.510;2023-11-19T01:04:00;98681.71;;;10.01;100.00
55592;BME280;41454;53.396;-1.510;2023-11-19T01:06:27;98680.42;;;10.01;100.00
55592;BME280;41454;53.396;-1.510;2023-11-19T01:08:54;98674.14;;;9.32;100.00
55592;BME280;41454;53.396;-1.510;2023-11-19T01:11:22;98668.39;;;9.63;100.00
55592;BME280;41454;53.396;-1.510;2023-11-19T01:13:50;98670.21;;;9.42;100.00
55592;BME280;41454;53.396;-1.510;2023-11-19T01:16:19;98672.79;;;9.58;100.00
55592;BME280;41454;53.396;-1.510;2023-11-19T01:18:47;98668.18;;;9.75;100.00
55592;BME280;41454;53.396;-1.510;2023-11-19T01:21:15;98667.90;;;9.49;100.00
55592;BME280;41454;53.396;-1.510;2023-11-19T01:23:43;98675.15;;;9.03;100.00
55592;BME280;41454;53.396;-1.510;2023-11-19T01:26:10;98671.71;;;9.11;100.00
55592;BME280;41454;53.396;-1.510;2023-11-19T01:28:37;98665.84;;;8.86;100.00
55592;BME280;41454;53.396;-1.510;2023-11-19T01:31:06;98657.41;;;8.53;100.00
55592;BME280;41454;53.396;-1.510;2023-11-19T01:33:33;98651.30;;;9.20;100.00
55592;BME280;41454;53.396;-1.510;2023-11-19T01:36:00;98651.50;;;9.35;100.00
55592;BME280;41454;53.396;-1.510;2023-11-19T01:38:28;98653.74;;;9.46;100.00
55592;BME280;41454;53.396;-1.510;2023-11-19T01:40:56;98662.95;;;9.48;100.00
55592;BME280;41454;53.396;-1.510;2023-11-19T01:43:40;98653.96;;;9.12;100.00
55592;BME280;41454;53.396;-1.510;2023-11-19T01:46:08;98657.06;;;9.20;100.00
55592;BME280;41454;53.396;-1.510;2023-11-19T01:48:35;98670.87;;;8.97;100.00
55592;BME280;41454;53.396;-1.510;2023-11-19T01:51:04;98667.26;;;9.14;100.00
55592;BME280;41454;53.396;-1.510;2023-11-19T01:53:33;98664.79;;;9.71;100.00
55592;BME280;41454;53.396;-1.510;2023-11-19T01:56:02;98671.70;;;9.92;100.00
55592;BME280;41454;53.396;-1.510;2023-11-19T01:58:30;98664.94;;;9.65;100.00
55592;BME280;41454;53.396;-1.510;2023-11-19T02:00:57;98667.82;;;9.98;100.00
55592;BME280;41454;53.396;-1.510;2023-11-19T02:03:26;98667.73;;;9.96;100.00
55592;BME280;41454;53.396;-1.510;2023-11-19T02:05:52;98667.04;;;9.41;100.00
55592;BME280;41454;53.396;-1.510;2023-11-19T02:08:19;98665.93;;;10.53;100.00
55592;BME280;41454;53.396;-1.510;2023-11-19T02:10:46;98663.89;;;9.88;100.00
55592;BME280;41454;53.396;-1.510;2023-11-19T02:13:13;98664.89;;;9.73;100.00
55592;BME280;41454;53.396;-1.510;2023-11-19T02:15:41;98666.59;;;10.08;100.00
55592;BME280;41454;53.396;-1.510;2023-11-19T02:18:25;98663.82;;;9.73;100.00
55592;BME280;41454;53.396;-1.510;2023-11-19T02:20:53;98667.61;;;9.17;100.00
55592;BME280;41454;53.396;-1.510;2023-11-19T02:23:21;98654.67;;;9.77;100.00
55592;BME280;41454;53.396;-1.510;2023-11-19T02:25:59;98668.09;;;9.69;100.00
55592;BME280;41454;53.396;-1.510;2023-11-19T02:28:28;98661.73;;;10.36;100.00
55592;BME280;41454;53.396;-1.510;2023-11-19T02:30:55;98667.65;;;9.89;100.00
55592;BME280;41454;53.396;-1.510;2023-11-19T02:33:22;98668.23;;;10.31;100.00
55592;BME280;41454;53.396;-1.510;2023-11-19T02:35:49;98657.74;;;9.96;100.00
55592;BME280;41454;53.396;-1.510;2023-11-19T02:38:17;98662.62;;;10.93;100.00
55592;BME280;41454;53.396;-1.510;2023-11-19T02:40:45;98652.28;;;10.08;100.00
55592;BME280;41454;53.396;-1.510;2023-11-19T02:43:11;98661.37;;;9.69;100.00
55592;BME280;41454;53.396;-1.510;2023-11-19T02:45:39;98656.11;;;9.65;100.00
55592;BME280;41454;53.396;-1.510;2023-11-19T02:48:06;98663.35;;;9.47;100.00
55592;BME280;41454;53.396;-1.510;2023-11-19T02:50:33;98666.67;;;9.94;100.00
55592;BME280;41454;53.396;-1.510;2023-11-19T02:53:01;98674.53;;;10.08;100.00
55592;BME280;41454;53.396;-1.510;2023-11-19T02:55:28;98671.94;;;10.55;100.00
55592;BME280;41454;53.396;-1.510;2023-11-19T02:57:55;98676.37;;;9.45;100.00
55592;BME280;41454;53.396;-1.510;2023-11-19T03:00:23;98661.40;;;9.97;100.00
55592;BME280;41454;53.396;-1.510;2023-11-19T03:02:50;98655.08;;;9.86;100.00
55592;BME280;41454;53.396;-1.510;2023-11-19T03:05:18;98659.72;;;9.77;100.00
55592;BME280;41454;53.396;-1.510;2023-11-19T03:07:46;98650.60;;;10.29;100.00
55592;BME280;41454;53.396;-1.510;2023-11-19T03:10:13;98647.73;;;10.23;100.00
55592;BME280;41454;53.396;-1.510;2023-11-19T03:12:41;98646.94;;;10.10;100.00
55592;BME280;41454;53.396;-1.510;2023-11-19T03:15:09;98645.12;;;10.48;100.00
55592;BME280;41454;53.396;-1.510;2023-11-19T03:17:36;98642.11;;;10.33;100.00
55592;BME280;41454;53.396;-1.510;2023-11-19T03:20:06;98643.32;;;9.93;100.00
55592;BME280;41454;53.396;-1.510;2023-11-19T03:22:33;98639.98;;;10.35;100.00
55592;BME280;41454;53.396;-1.510;2023-11-19T03:25:01;98641.51;;;10.42;100.00
55592;BME280;41454;53.396;-1.510;2023-11-19T03:27:27;98642.76;;;10.10;100.00
55592;BME280;41454;53.396;-1.510;2023-11-19T03:29:54;98640.92;;;9.62;100.00
55592;BME280;41454;53.396;-1.510;2023-11-19T03:32:21;98640.79;;;9.88;100.00
55592;BME280;41454;53.396;-1.510;2023-11-19T03:34:49;98636.88;;;9.67;100.00
55592;BME280;41454;53.396;-1.510;2023-11-19T03:37:15;98638.69;;;9.72;100.00
55592;BME280;41454;53.396;-1.510;2023-11-19T03:39:43;98636.41;;;10.20;100.00
55592;BME280;41454;53.396;-1.510;2023-11-19T03:42:10;98635.14;;;10.03;100.00
55592;BME280;41454;53.396;-1.510;2023-11-19T03:44:36;98642.18;;;10.10;100.00
55592;BME280;41454;53.396;-1.510;2023-11-19T03:47:04;98626.21;;;9.53;100.00
55592;BME280;41454;53.396;-1.510;2023-11-19T03:49:31;98626.65;;;9.72;100.00
55592;BME280;41454;53.396;-1.510;2023-11-19T03:51:59;98634.42;;;9.88;100.00
55592;BME280;41454;53.396;-1.510;2023-11-19T03:54:27;98633.38;;;9.98;100.00
55592;BME280;41454;53.396;-1.510;2023-11-19T03:56:54;98628.34;;;8.92;100.00
55592;BME280;41454;53.396;-1.510;2023-11-19T03:59:21;98637.92;;;9.36;100.00
55592;BME280;41454;53.396;-1.510;2023-11-19T04:01:48;98636.13;;;9.26;100.00
55592;BME280;41454;53.396;-1.510;2023-11-19T04:04:15;98640.69;;;9.89;100.00
55592;BME280;41454;53.396;-1.510;2023-11-19T04:06:42;98645.23;;;9.91;100.00
55592;BME280;41454;53.396;-1.510;2023-11-19T04:09:09;98640.27;;;9.65;100.00
55592;BME280;41454;53.396;-1.510;2023-11-19T04:11:36;98639.56;;;9.68;100.00
55592;BME280;41454;53.396;-1.510;2023-11-19T04:14:04;98643.47;;;9.68;100.00
55592;BME280;41454;53.396;-1.510;2023-11-19T04:16:31;98646.63;;;9.64;100.00
55592;BME280;41454;53.396;-1.510;2023-11-19T04:18:59;98653.96;;;9.49;100.00
55592;BME280;41454;53.396;-1.510;2023-11-19T04:21:26;98647.44;;;9.78;100.00
55592;BME280;41454;53.396;-1.510;2023-11-19T04:23:54;98651.83;;;9.29;100.00
55592;BME280;41454;53.396;-1.510;2023-11-19T04:26:20;98642.08;;;9.65;100.00
55592;BME280;41454;53.396;-1.510;2023-11-19T04:28:47;98647.45;;;9.56;100.00
55592;BME280;41454;53.396;-1.510;2023-11-19T04:31:14;98640.99;;;9.60;100.00
55592;BME280;41454;53.396;-1.510;2023-11-19T04:33:41;98648.61;;;9.83;100.00
55592;BME280;41454;53.396;-1.510;2023-11-19T04:36:10;98648.82;;;9.75;100.00
55592;BME280;41454;53.396;-1.510;2023-11-19T04:38:37;98644.78;;;9.92;100.00
55592;BME280;41454;53.396;-1.510;2023-11-19T04:41:05;98644.33;;;9.37;100.00
55592;BME280;41454;53.396;-1.510;2023-11-19T04:43:32;98639.82;;;9.35;100.00
55592;BME280;41454;53.396;-1.510;2023-11-19T04:45:59;98640.01;;;9.22;100.00
55592;BME280;41454;53.396;-1.510;2023-11-19T04:48:26;98630.13;;;9.92;100.00
55592;BME280;41454;53.396;-1.510;2023-11-19T04:50:53;98632.01;;;9.04;100.00
55592;BME280;41454;53.396;-1.510;2023-11-19T04:53:20;98636.59;;;9.81;100.00
55592;BME280;41454;53.396;-1.510;2023-11-19T04:55:47;98632.54;;;10.04;100.00
55592;BME280;41454;53.396;-1.510;2023-11-19T04:58:13;98637.82;;;10.30;100.00
55592;BME280;41454;53.396;-1.510;2023-11-19T05:00:41;98634.96;;;10.06;100.00
55592;BME280;41454;53.396;-1.510;2023-11-19T05:03:08;98639.74;;;9.50;100.00
55592;BME280;41454;53.396;-1.510;2023-11-19T05:05:35;98637.66;;;9.65;100.00
55592;BME280;41454;53.396;-1.510;2023-11-19T05:08:01;98644.05;;;8.58;100.00
55592;BME280;41454;53.396;-1.510;2023-11-19T05:10:28;98631.26;;;8.57;100.00
55592;BME280;41454;53.396;-1.510;2023-11-19T05:12:55;98634.52;;;8.64;100.00
55592;BME280;41454;53.396;-1.510;2023-11-19T05:15:22;98628.87;;;8.41;100.00
55592;BME280;41454;53.396;-1.510;2023-11-19T05:17:49;98628.46;;;8.33;100.00
55592;BME280;41454;53.396;-1.510;2023-11-19T05:20:16;98622.39;;;8.90;100.00
55592;BME280;41454;53.396;-1.510;2023-11-19T05:22:44;98624.03;;;8.61;100.00
55592;BME280;41454;53.396;-1.510;2023-11-19T05:25:11;98625.59;;;8.63;100.00
55592;BME280;41454;53.396;-1.510;2023-11-19T05:27:39;98632.00;;;8.75;100.00
55592;BME280;41454;53.396;-1.510;2023-11-19T05:30:07;98626.51;;;8.23;100.00
55592;BME280;41454;53.396;-1.510;2023-11-19T05:32:34;98620.94;;;8.85;100.00
55592;BME280;41454;53.396;-1.510;2023-11-19T05:35:00;98612.16;;;8.55;100.00
55592;BME280;41454;53.396;-1.510;2023-11-19T05:37:27;98605.25;;;8.71;100.00
55592;BME280;41454;53.396;-1.510;2023-11-19T05:39:54;98601.24;;;7.87;100.00
55592;BME280;41454;53.396;-1.510;2023-11-19T05:42:21;98603.59;;;8.59;100.00
55592;BME280;41454;53.396;-1.510;2023-11-19T05:44:49;98598.68;;;8.01;100.00
55592;BME280;41454;53.396;-1.510;2023-11-19T05:47:16;98594.34;;;8.88;100.00
55592;BME280;41454;53.396;-1.510;2023-11-19T05:49:43;98594.77;;;8.39;100.00
55592;BME280;41454;53.396;-1.510;2023-11-19T05:52:10;98594.21;;;8.58;100.00
55592;BME280;41454;53.396;-1.510;2023-11-19T05:54:38;98593.73;;;8.71;100.00
55592;BME280;41454;53.396;-1.510;2023-11-19T05:57:06;98599.76;;;8.55;100.00
55592;BME280;41454;53.396;-1.510;2023-11-19T05:59:33;98595.25;;;8.58;100.00
55592;BME280;41454;53.396;-1.510;2023-11-19T06:02:00;98592.31;;;8.50;100.00
55592;BME280;41454;53.396;-1.510;2023-11-19T06:04:27;98599.07;;;8.82;100.00
55592;BME280;41454;53.396;-1.510;2023-11-19T06:06:54;98597.56;;;7.82;100.00
55592;BME280;41454;53.396;-1.510;2023-11-19T06:09:21;98597.80;;;8.42;100.00
55592;BME280;41454;53.396;-1.510;2023-11-19T06:11:49;98602.53;;;8.66;100.00
55592;BME280;41454;53.396;-1.510;2023-11-19T06:14:16;98604.81;;;9.26;100.00
55592;BME280;41454;53.396;-1.510;2023-11-19T06:16:44;98613.64;;;8.97;100.00
55592;BME280;41454;53.396;-1.510;2023-11-19T06:19:11;98623.26;;;8.75;100.00
55592;BME280;41454;53.396;-1.510;2023-11-19T06:21:39;98612.48;;;8.70;100.00
55592;BME280;41454;53.396;-1.510;2023-11-19T06:24:07;98615.90;;;8.20;100.00
55592;BME280;41454;53.396;-1.510;2023-11-19T06:26:34;98621.48;;;9.35;100.00
55592;BME280;41454;53.396;-1.510;2023-11-19T06:29:01;98628.16;;;8.55;100.00
55592;BME280;41454;53.396;-1.510;2023-11-19T06:31:29;98624.18;;;8.63;100.00
55592;BME280;41454;53.396;-1.510;2023-11-19T06:33:56;98626.45;;;7.83;100.00
55592;BME280;41454;53.396;-1.510;2023-11-19T06:36:22;98630.98;;;8.50;100.00
55592;BME280;41454;53.396;-1.510;2023-11-19T06:38:49;98630.53;;;8.13;100.00
55592;BME280;41454;53.396;-1.510;2023-11-19T06:41:16;98630.43;;;8.55;100.00
55592;BME280;41454;53.396;-1.510;2023-11-19T06:43:44;98636.55;;;8.81;100.00
55592;BME280;41454;53.396;-1.510;2023-11-19T06:46:15;98630.74;;;8.42;100.00
55592;BME280;41454;53.396;-1.510;2023-11-19T06:48:42;98631.39;;;9.09;100.00
55592;BME280;41454;53.396;-1.510;2023-11-19T06:51:10;98625.24;;;8.78;100.00
55592;BME280;41454;53.396;-1.510;2023-11-19T06:53:37;98632.94;;;8.35;100.00
55592;BME280;41454;53.396;-1.510;2023-11-19T06:56:10;98632.11;;;8.27;100.00
55592;BME280;41454;53.396;-1.510;2023-11-19T06:58:43;98618.76;;;8.75;100.00
55592;BME280;41454;53.396;-1.510;2023-11-19T07:01:11;98617.00;;;8.80;100.00
55592;BME280;41454;53.396;-1.510;2023-11-19T07:03:38;98623.95;;;8.76;100.00
55592;BME280;41454;53.396;-1.510;2023-11-19T07:06:05;98623.35;;;8.11;100.00
55592;BME280;41454;53.396;-1.510;2023-11-19T07:08:32;98621.46;;;8.67;100.00
55592;BME280;41454;53.396;-1.510;2023-11-19T07:10:59;98619.95;;;8.62;100.00
55592;BME280;41454;53.396;-1.510;2023-11-19T07:13:27;98627.04;;;8.73;100.00
55592;BME280;41454;53.396;-1.510;2023-11-19T07:15:55;98624.47;;;8.20;100.00
55592;BME280;41454;53.396;-1.510;2023-11-19T07:18:22;98633.74;;;8.37;100.00
55592;BME280;41454;53.396;-1.510;2023-11-19T07:20:49;98631.36;;;8.50;100.00
55592;BME280;41454;53.396;-1.510;2023-11-19T07:23:16;98631.44;;;8.65;100.00
55592;BME280;41454;53.396;-1.510;2023-11-19T07:25:43;98631.06;;;8.71;100.00
55592;BME280;41454;53.396;-1.510;2023-11-19T07:28:11;98638.41;;;8.60;100.00
55592;BME280;41454;53.396;-1.510;2023-11-19T07:30:38;98629.56;;;8.65;100.00
55592;BME280;41454;53.396;-1.510;2023-11-19T07:33:06;98627.14;;;8.22;100.00
55592;BME280;41454;53.396;-1.510;2023-11-19T07:35:33;98630.75;;;8.77;100.00
55592;BME280;41454;53.396;-1.510;2023-11-19T07:38:00;98622.08;;;7.91;100.00
55592;BME280;41454;53.396;-1.510;2023-11-19T07:40:26;98615.69;;;8.54;100.00
55592;BME280;41454;53.396;-1.510;2023-11-19T07:42:53;98615.49;;;8.74;100.00
55592;BME280;41454;53.396;-1.510;2023-11-19T07:45:21;98617.68;;;8.42;100.00
55592;BME280;41454;53.396;-1.510;2023-11-19T07:47:48;98619.97;;;8.32;100.00
55592;BME280;41454;53.396;-1.510;2023-11-19T07:50:16;98622.31;;;8.53;100.00
55592;BME280;41454;53.396;-1.510;2023-11-19T07:52:43;98615.88;;;8.59;100.00
55592;BME280;41454;53.396;-1.510;2023-11-19T07:55:10;98615.11;;;8.82;100.00
55592;BME280;41454;53.396;-1.510;2023-11-19T07:57:37;98619.33;;;8.91;100.00
55592;BME280;41454;53.396;-1.510;2023-11-19T08:00:06;98618.63;;;8.80;100.00
55592;BME280;41454;53.396;-1.510;2023-11-19T08:02:33;98630.32;;;8.87;100.00
55592;BME280;41454;53.396;-1.510;2023-11-19T08:05:00;98625.02;;;8.72;100.00
55592;BME280;41454;53.396;-1.510;2023-11-19T08:07:27;98624.69;;;8.75;100.00
55592;BME280;41454;53.396;-1.510;2023-11-19T08:09:53;98627.26;;;8.80;100.00
55592;BME280;41454;53.396;-1.510;2023-11-19T08:12:20;98621.94;;;8.64;100.00
55592;BME280;41454;53.396;-1.510;2023-11-19T08:14:47;98629.40;;;8.58;100.00
55592;BME280;41454;53.396;-1.510;2023-11-19T08:17:14;98632.66;;;8.77;100.00
55592;BME280;41454;53.396;-1.510;2023-11-19T08:19:42;98628.33;;;9.16;100.00
55592;BME280;41454;53.396;-1.510;2023-11-19T08:22:09;98627.65;;;9.16;100.00
55592;BME280;41454;53.396;-1.510;2023-11-19T08:24:36;98631.63;;;9.05;100.00
55592;BME280;41454;53.396;-1.510;2023-11-19T08:27:04;98627.93;;;9.14;100.00
55592;BME280;41454;53.396;-1.510;2023-11-19T08:29:31;98627.37;;;9.11;100.00
55592;BME280;41454;53.396;-1.510;2023-11-19T08:32:00;98631.76;;;8.74;100.00
55592;BME280;41454;53.396;-1.510;2023-11-19T08:34:27;98631.38;;;8.63;100.00
55592;BME280;41454;53.396;-1.510;2023-11-19T08:36:54;98628.58;;;9.19;100.00
55592;BME280;41454;53.396;-1.510;2023-11-19T08:39:22;98628.41;;;9.32;100.00
55592;BME280;41454;53.396;-1.510;2023-11-19T08:41:49;98632.54;;;9.31;100.00
55592;BME280;41454;53.396;-1.510;2023-11-19T08:44:17;98629.99;;;9.35;100.00
55592;BME280;41454;53.396;-1.510;2023-11-19T08:46:47;98636.95;;;9.87;100.00
55592;BME280;41454;53.396;-1.510;2023-11-19T08:49:15;98643.00;;;9.34;100.00
55592;BME280;41454;53.396;-1.510;2023-11-19T08:51:42;98644.08;;;10.30;100.00
55592;BME280;41454;53.396;-1.510;2023-11-19T08:54:10;98646.36;;;10.36;100.00
55592;BME280;41454;53.396;-1.510;2023-11-19T08:56:37;98639.27;;;10.17;100.00
55592;BME280;41454;53.396;-1.510;2023-11-19T08:59:05;98645.92;;;10.33;100.00
55592;BME280;41454;53.396;-1.510;2023-11-19T09:01:32;98647.85;;;10.35;100.00
55592;BME280;41454;53.396;-1.510;2023-11-19T09:04:00;98644.17;;;9.51;100.00
55592;BME280;41454;53.396;-1.510;2023-11-19T09:06:27;98645.65;;;9.32;100.00
55592;BME280;41454;53.396;-1.510;2023-11-19T09:08:54;98647.92;;;8.68;100.00
55592;BME280;41454;53.396;-1.510;2023-11-19T09:11:21;98643.41;;;10.28;100.00
55592;BME280;41454;53.396;-1.510;2023-11-19T09:13:48;98634.63;;;10.39;100.00
55592;BME280;41454;53.396;-1.510;2023-11-19T09:16:15;98638.41;;;10.64;100.00
55592;BME280;41454;53.396;-1.510;2023-11-19T09:18:42;98642.78;;;10.75;100.00
55592;BME280;41454;53.396;-1.510;2023-11-19T09:21:10;98638.85;;;10.17;100.00
55592;BME280;41454;53.396;-1.510;2023-11-19T09:23:37;98633.04;;;9.69;100.00
55592;BME280;41454;53.396;-1.510;2023-11-19T09:26:08;98632.54;;;9.56;100.00
55592;BME280;41454;53.396;-1.510;2023-11-19T09:28:36;98639.23;;;9.75;100.00
55592;BME280;41454;53.396;-1.510;2023-11-19T09:31:13;98633.89;;;9.95;100.00
55592;BME280;41454;53.396;-1.510;2023-11-19T09:33:39;98640.96;;;10.07;100.00
55592;BME280;41454;53.396;-1.510;2023-11-19T09:36:07;98644.78;;;9.95;100.00
55592;BME280;41454;53.396;-1.510;2023-11-19T09:38:34;98637.45;;;9.60;100.00
55592;BME280;41454;53.396;-1.510;2023-11-19T09:41:01;98635.57;;;9.35;100.00
55592;BME280;41454;53.396;-1.510;2023-11-19T09:43:30;98636.19;;;9.80;100.00
55592;BME280;41454;53.396;-1.510;2023-11-19T09:45:58;98638.37;;;10.21;100.00
55592;BME280;41454;53.396;-1.510;2023-11-19T09:48:28;98633.17;;;9.94;100.00
55592;BME280;41454;53.396;-1.510;2023-11-19T09:50:56;98629.04;;;9.79;100.00
55592;BME280;41454;53.396;-1.510;2023-11-19T09:53:23;98629.89;;;10.04;100.00
55592;BME280;41454;53.396;-1.510;2023-11-19T09:55:51;98629.46;;;9.70;100.00
55592;BME280;41454;53.396;-1.510;2023-11-19T09:58:19;98624.96;;;10.99;100.00
55592;BME280;41454;53.396;-1.510;2023-11-19T10:00:49;98621.98;;;10.49;100.00
55592;BME280;41454;53.396;-1.510;2023-11-19T10:03:16;98622.25;;;10.56;100.00
55592;BME280;41454;53.396;-1.510;2023-11-19T10:05:44;98620.38;;;10.30;100.00
55592;BME280;41454;53.396;-1.510;2023-11-19T10:08:11;98624.45;;;10.63;100.00
55592;BME280;41454;53.396;-1.510;2023-11-19T10:10:38;98620.11;;;10.27;100.00
55592;BME280;41454;53.396;-1.510;2023-11-19T10:13:06;98618.80;;;10.51;100.00
55592;BME280;41454;53.396;-1.510;2023-11-19T10:15:36;98617.01;;;10.44;100.00
55592;BME280;41454;53.396;-1.510;2023-11-19T10:18:04;98617.16;;;9.88;100.00
55592;BME280;41454;53.396;-1.510;2023-11-19T10:20:35;98622.06;;;10.02;100.00
55592;BME280;41454;53.396;-1.510;2023-11-19T10:23:03;98618.24;;;10.23;100.00
55592;BME280;41454;53.396;-1.510;2023-11-19T10:25:30;98616.75;;;9.91;100.00
55592;BME280;41454;53.396;-1.510;2023-11-19T10:27:57;98615.14;;;9.52;100.00
55592;BME280;41454;53.396;-1.510;2023-11-19T10:30:26;98614.31;;;10.16;100.00
55592;BME280;41454;53.396;-1.510;2023-11-19T10:33:10;98615.19;;;8.94;100.00
55592;BME280;41454;53.396;-1.510;2023-11-19T10:35:52;98613.83;;;10.20;100.00
55592;BME280;41454;53.396;-1.510;2023-11-19T10:38:19;98605.79;;;9.98;100.00
55592;BME280;41454;53.396;-1.510;2023-11-19T10:40:47;98603.88;;;9.98;100.00
55592;BME280;41454;53.396;-1.510;2023-11-19T10:43:15;98602.35;;;10.48;100.00
55592;BME280;41454;53.396;-1.510;2023-11-19T10:45:42;98602.41;;;10.91;100.00
55592;BME280;41454;53.396;-1.510;2023-11-19T10:48:10;98597.07;;;10.45;100.00
55592;BME280;41454;53.396;-1.510;2023-11-19T10:50:38;98594.25;;;11.22;100.00
55592;BME280;41454;53.396;-1.510;2023-11-19T10:53:07;98589.59;;;10.81;100.00
55592;BME280;41454;53.396;-1.510;2023-11-19T10:55:37;98592.78;;;10.74;100.00
55592;BME280;41454;53.396;-1.510;2023-11-19T10:58:05;98585.14;;;10.46;100.00
55592;BME280;41454;53.396;-1.510;2023-11-19T11:00:38;98580.87;;;9.93;100.00
55592;BME280;41454;53.396;-1.510;2023-11-19T11:03:11;98582.86;;;9.94;100.00
55592;BME280;41454;53.396;-1.510;2023-11-19T11:05:42;98579.55;;;10.12;100.00
55592;BME280;41454;53.396;-1.510;2023-11-19T11:08:10;98584.74;;;9.80;100.00
55592;BME280;41454;53.396;-1.510;2023-11-19T11:10:45;98584.14;;;10.31;100.00
55592;BME280;41454;53.396;-1.510;2023-11-19T11:13:14;98581.31;;;10.52;100.00
55592;BME280;41454;53.396;-1.510;2023-11-19T11:15:41;98582.22;;;10.70;100.00
55592;BME280;41454;53.396;-1.510;2023-11-19T11:18:09;98581.95;;;10.38;100.00
55592;BME280;41454;53.396;-1.510;2023-11-19T11:20:36;98579.35;;;10.91;100.00
55592;BME280;41454;53.396;-1.510;2023-11-19T11:23:19;98577.84;;;9.95;100.00
55592;BME280;41454;53.396;-1.510;2023-11-19T11:26:00;98582.80;;;9.62;100.00
55592;BME280;41454;53.396;-1.510;2023-11-19T11:28:36;98580.42;;;9.92;100.00
55592;BME280;41454;53.396;-1.510;2023-11-19T11:31:15;98581.29;;;10.27;100.00
55592;BME280;41454;53.396;-1.510;2023-11-19T11:34:05;98575.29;;;10.59;100.00
55592;BME280;41454;53.396;-1.510;2023-11-19T11:36:41;98578.12;;;10.05;100.00
55592;BME280;41454;53.396;-1.510;2023-11-19T11:39:14;98574.72;;;10.85;100.00
55592;BME280;41454;53.396;-1.510;2023-11-19T11:41:42;98571.27;;;10.75;100.00
55592;BME280;41454;53.396;-1.510;2023-11-19T11:44:10;98564.31;;;10.31;100.00
55592;BME280;41454;53.396;-1.510;2023-11-19T11:47:10;98559.60;;;10.97;100.00
55592;BME280;41454;53.396;-1.510;2023-11-19T11:49:37;98554.27;;;10.90;100.00
55592;BME280;41454;53.396;-1.510;2023-11-19T11:52:04;98552.24;;;10.41;100.00
55592;BME280;41454;53.396;-1.510;2023-11-19T11:54:32;98553.79;;;10.84;100.00
55592;BME280;41454;53.396;-1.510;2023-11-19T11:57:16;98548.78;;;10.66;100.00
55592;BME280;41454;53.396;-1.510;2023-11-19T11:59:45;98539.76;;;10.77;100.00
55592;BME280;41454;53.396;-1.510;2023-11-19T12:02:14;98538.08;;;10.11;100.00
55592;BME280;41454;53.396;-1.510;2023-11-19T12:04:43;98535.19;;;10.55;100.00
55592;BME280;41454;53.396;-1.510;2023-11-19T12:07:14;98534.18;;;10.25;100.00
55592;BME280;41454;53.396;-1.510;2023-11-19T12:09:42;98536.77;;;10.17;100.00
55592;BME280;41454;53.396;-1.510;2023-11-19T12:12:21;98534.45;;;10.70;100.00
55592;BME280;41454;53.396;-1.510;2023-11-19T12:15:06;98532.37;;;10.34;100.00
55592;BME280;41454;53.396;-1.510;2023-11-19T12:17:43;98530.10;;;10.34;100.00
55592;BME280;41454;53.396;-1.510;2023-11-19T12:20:10;98536.90;;;10.76;100.00
55592;BME280;41454;53.396;-1.510;2023-11-19T12:22:38;98529.43;;;10.57;100.00
55592;BME280;41454;53.396;-1.510;2023-11-19T12:25:07;98523.73;;;10.23;100.00
55592;BME280;41454;53.396;-1.510;2023-11-19T12:27:34;98522.00;;;10.61;100.00
55592;BME280;41454;53.396;-1.510;2023-11-19T12:30:01;98522.11;;;10.79;100.00
55592;BME280;41454;53.396;-1.510;2023-11-19T12:32:38;98518.13;;;11.03;100.00
55592;BME280;41454;53.396;-1.510;2023-11-19T12:35:05;98513.15;;;10.46;100.00
55592;BME280;41454;53.396;-1.510;2023-11-19T12:37:32;98516.31;;;10.70;100.00
55592;BME280;41454;53.396;-1.510;2023-11-19T12:39:59;98517.44;;;9.97;100.00
55592;BME280;41454;53.396;-1.510;2023-11-19T12:42:35;98514.26;;;9.92;100.00
55592;BME280;41454;53.396;-1.510;2023-11-19T12:45:03;98509.30;;;10.10;100.00
55592;BME280;41454;53.396;-1.510;2023-11-19T12:47:30;98505.93;;;10.78;100.00
55592;BME280;41454;53.396;-1.510;2023-11-19T12:49:56;98509.84;;;10.97;100.00
55592;BME280;41454;53.396;-1.510;2023-11-19T12:52:24;98511.91;;;10.47;100.00